sensor_id;sensor_type;location;lat;lon;timestamp;pressure;altitude;pressure_sealevel;temperature;humidity
56040;BME280;43937;41.366;2.072;2023-06-19T00:02:01;100615.81;;;25.42;44.84
56040;BME280;43937;41.366;2.072;2023-06-19T00:04:27;100625.88;;;25.48;45.30
56040;BME280;43937;41.366;2.072;2023-06-19T00:06:53;100628.09;;;25.46;44.61
56040;BME280;43937;41.366;2.072;2023-06-19T00:09:19;100642.66;;;25.58;44.43
56040;BME280;43937;41.366;2.072;2023-06-19T00:11:45;100639.63;;;25.60;43.94
56040;BME280;43937;41.366;2.072;2023-06-19T00:14:11;100634.59;;;25.62;43.51
56040;BME280;43937;41.366;2.072;2023-06-19T00:16:36;100625.78;;;25.75;43.60
56040;BME280;43937;41.366;2.072;2023-06-19T00:19:20;100618.50;;;25.69;42.99
56040;BME280;43937;41.366;2.072;2023-06-19T00:21:46;100594.84;;;25.34;42.70
56040;BME280;43937;41.366;2.072;2023-06-19T00:24:11;100618.25;;;25.33;43.46
56040;BME280;43937;41.366;2.072;2023-06-19T00:26:37;100595.41;;;25.31;44.78
56040;BME280;43937;41.366;2.072;2023-06-19T00:29:02;100584.72;;;25.18;44.35
56040;BME280;43937;41.366;2.072;2023-06-19T00:31:28;100563.44;;;25.07;44.17
56040;BME280;43937;41.366;2.072;2023-06-19T00:33:54;100584.53;;;25.35;43.68
56040;BME280;43937;41.366;2.072;2023-06-19T00:36:19;100596.53;;;25.35;42.98
56040;BME280;43937;41.366;2.072;2023-06-19T00:39:54;100567.88;;;25.40;42.67
56040;BME280;43937;41.366;2.072;2023-06-19T00:42:19;100569.63;;;25.56;42.76
56040;BME280;43937;41.366;2.072;2023-06-19T00:44:45;100568.25;;;25.54;42.48
56040;BME280;43937;41.366;2.072;2023-06-19T00:47:10;100563.56;;;25.70;42.65
56040;BME280;43937;41.366;2.072;2023-06-19T00:49:36;100560.78;;;25.75;42.39
56040;BME280;43937;41.366;2.072;2023-06-19T00:52:01;100558.66;;;25.87;42.14
56040;BME280;43937;41.366;2.072;2023-06-19T00:54:27;100566.19;;;25.92;42.43
56040;BME280;43937;41.366;2.072;2023-06-19T00:56:52;100574.53;;;25.87;42.19
56040;BME280;43937;41.366;2.072;2023-06-19T00:59:19;100526.19;;;25.66;42.68
56040;BME280;43937;41.366;2.072;2023-06-19T01:01:46;100541.31;;;25.80;42.41
56040;BME280;43937;41.366;2.072;2023-06-19T01:04:12;100561.03;;;25.68;42.36
56040;BME280;43937;41.366;2.072;2023-06-19T01:11:19;100577.84;;;25.31;42.72
56040;BME280;43937;41.366;2.072;2023-06-19T01:13:48;100573.34;;;25.25;42.71
56040;BME280;43937;41.366;2.072;2023-06-19T01:16:16;100559.00;;;25.11;43.02
56040;BME280;43937;41.366;2.072;2023-06-19T01:18:43;100563.44;;;25.07;43.92
56040;BME280;43937;41.366;2.072;2023-06-19T01:21:15;100571.09;;;24.89;45.24
56040;BME280;43937;41.366;2.072;2023-06-19T01:23:41;100561.66;;;24.90;45.41
56040;BME280;43937;41.366;2.072;2023-06-19T01:26:07;100553.78;;;24.82;45.79
56040;BME280;43937;41.366;2.072;2023-06-19T01:28:34;100554.09;;;24.86;46.43
56040;BME280;43937;41.366;2.072;2023-06-19T01:31:01;100553.91;;;24.65;46.87
56040;BME280;43937;41.366;2.072;2023-06-19T01:33:28;100560.53;;;24.59;47.31
56040;BME280;43937;41.366;2.072;2023-06-19T01:35:56;100547.69;;;24.53;47.32
56040;BME280;43937;41.366;2.072;2023-06-19T01:38:24;100551.09;;;24.60;47.18
56040;BME280;43937;41.366;2.072;2023-06-19T01:40:55;100552.78;;;24.61;46.80
56040;BME280;43937;41.366;2.072;2023-06-19T01:43:23;100549.31;;;24.49;47.37
56040;BME280;43937;41.366;2.072;2023-06-19T01:45:49;100538.72;;;24.46;47.22
56040;BME280;43937;41.366;2.072;2023-06-19T01:48:15;100546.00;;;24.52;47.47
56040;BME280;43937;41.366;2.072;2023-06-19T01:50:45;100538.31;;;24.64;46.93
56040;BME280;43937;41.366;2.072;2023-06-19T01:55:39;100516.31;;;24.63;47.03
56040;BME280;43937;41.366;2.072;2023-06-19T01:58:05;100528.16;;;24.80;46.34
56040;BME280;43937;41.366;2.072;2023-06-19T02:00:30;100533.72;;;24.80;46.18
56040;BME280;43937;41.366;2.072;2023-06-19T02:03:00;100524.53;;;24.80;45.85
56040;BME280;43937;41.366;2.072;2023-06-19T02:05:26;100513.84;;;24.66;46.25
56040;BME280;43937;41.366;2.072;2023-06-19T02:07:51;100476.97;;;24.49;46.23
56040;BME280;43937;41.366;2.072;2023-06-19T02:10:17;100521.78;;;24.85;45.78
56040;BME280;43937;41.366;2.072;2023-06-19T02:12:42;100506.13;;;24.74;45.42
56040;BME280;43937;41.366;2.072;2023-06-19T02:15:08;100515.94;;;24.86;45.46
56040;BME280;43937;41.366;2.072;2023-06-19T02:17:34;100521.38;;;25.03;45.29
56040;BME280;43937;41.366;2.072;2023-06-19T02:20:33;100509.41;;;25.08;45.12
56040;BME280;43937;41.366;2.072;2023-06-19T02:22:59;100517.50;;;25.09;44.97
56040;BME280;43937;41.366;2.072;2023-06-19T02:25:25;100526.53;;;24.89;45.54
56040;BME280;43937;41.366;2.072;2023-06-19T02:27:50;100539.78;;;24.72;45.53
56040;BME280;43937;41.366;2.072;2023-06-19T02:30:15;100531.34;;;24.62;45.99
56040;BME280;43937;41.366;2.072;2023-06-19T02:32:41;100525.00;;;24.72;45.19
56040;BME280;43937;41.366;2.072;2023-06-19T02:35:10;100535.09;;;24.78;44.77
56040;BME280;43937;41.366;2.072;2023-06-19T02:37:36;100542.88;;;24.76;44.61
56040;BME280;43937;41.366;2.072;2023-06-19T02:40:05;100539.69;;;24.62;44.76
56040;BME280;43937;41.366;2.072;2023-06-19T02:42:32;100513.72;;;24.51;45.15
56040;BME280;43937;41.366;2.072;2023-06-19T02:44:57;100529.84;;;24.49;45.54
56040;BME280;43937;41.366;2.072;2023-06-19T02:47:31;100535.53;;;24.37;46.74
56040;BME280;43937;41.366;2.072;2023-06-19T02:50:01;100522.00;;;24.19;47.30
56040;BME280;43937;41.366;2.072;2023-06-19T02:52:27;100511.50;;;24.26;47.69
56040;BME280;43937;41.366;2.072;2023-06-19T02:54:53;100501.06;;;24.11;47.78
56040;BME280;43937;41.366;2.072;2023-06-19T02:57:19;100502.78;;;24.17;47.45
56040;BME280;43937;41.366;2.072;2023-06-19T02:59:44;100503.44;;;24.25;48.36
56040;BME280;43937;41.366;2.072;2023-06-19T03:02:11;100506.25;;;24.30;48.17
56040;BME280;43937;41.366;2.072;2023-06-19T03:04:36;100495.34;;;24.23;48.39
56040;BME280;43937;41.366;2.072;2023-06-19T03:07:02;100489.00;;;24.28;48.58
56040;BME280;43937;41.366;2.072;2023-06-19T03:09:28;100469.47;;;24.22;48.49
56040;BME280;43937;41.366;2.072;2023-06-19T03:11:53;100446.63;;;24.20;48.27
56040;BME280;43937;41.366;2.072;2023-06-19T03:14:20;100466.16;;;24.26;48.64
56040;BME280;43937;41.366;2.072;2023-06-19T03:16:45;100452.72;;;24.17;48.83
56040;BME280;43937;41.366;2.072;2023-06-19T03:19:11;100464.97;;;24.16;50.18
56040;BME280;43937;41.366;2.072;2023-06-19T03:21:36;100471.66;;;24.20;49.68
56040;BME280;43937;41.366;2.072;2023-06-19T03:24:02;100464.38;;;24.14;50.09
56040;BME280;43937;41.366;2.072;2023-06-19T03:26:28;100460.97;;;23.80;50.53
56040;BME280;43937;41.366;2.072;2023-06-19T03:28:54;100463.00;;;23.85;51.42
56040;BME280;43937;41.366;2.072;2023-06-19T03:31:19;100446.66;;;23.66;51.85
56040;BME280;43937;41.366;2.072;2023-06-19T03:33:45;100455.88;;;23.72;52.05
56040;BME280;43937;41.366;2.072;2023-06-19T03:36:10;100456.47;;;23.74;52.22
56040;BME280;43937;41.366;2.072;2023-06-19T03:38:35;100454.84;;;23.78;52.47
56040;BME280;43937;41.366;2.072;2023-06-19T03:43:17;100466.75;;;23.73;52.67
56040;BME280;43937;41.366;2.072;2023-06-19T03:45:43;100452.28;;;23.49;53.01
56040;BME280;43937;41.366;2.072;2023-06-19T03:48:08;100458.88;;;23.43;53.23
56040;BME280;43937;41.366;2.072;2023-06-19T03:50:34;100448.28;;;23.40;53.14
56040;BME280;43937;41.366;2.072;2023-06-19T03:52:59;100460.28;;;23.46;52.89
56040;BME280;43937;41.366;2.072;2023-06-19T03:55:25;100462.41;;;23.39;53.03
56040;BME280;43937;41.366;2.072;2023-06-19T03:57:50;100458.22;;;23.36;53.10
56040;BME280;43937;41.366;2.072;2023-06-19T04:00:16;100467.94;;;23.39;53.14
56040;BME280;43937;41.366;2.072;2023-06-19T04:02:43;100463.91;;;23.46;52.48
56040;BME280;43937;41.366;2.072;2023-06-19T04:05:11;100461.75;;;23.31;52.69
56040;BME280;43937;41.366;2.072;2023-06-19T04:07:37;100457.31;;;23.30;52.46
56040;BME280;43937;41.366;2.072;2023-06-19T04:10:02;100456.84;;;23.39;52.23
56040;BME280;43937;41.366;2.072;2023-06-19T04:12:28;100454.66;;;23.41;52.36
56040;BME280;43937;41.366;2.072;2023-06-19T04:14:54;100426.38;;;23.00;52.54
56040;BME280;43937;41.366;2.072;2023-06-19T04:17:19;100441.28;;;23.16;52.61
56040;BME280;43937;41.366;2.072;2023-06-19T04:19:45;100433.69;;;23.06;52.81
56040;BME280;43937;41.366;2.072;2023-06-19T04:22:10;100446.13;;;23.25;52.41
56040;BME280;43937;41.366;2.072;2023-06-19T04:24:36;100454.34;;;23.37;52.69
56040;BME280;43937;41.366;2.072;2023-06-19T04:27:01;100455.50;;;23.41;53.12
56040;BME280;43937;41.366;2.072;2023-06-19T04:29:27;100468.63;;;23.46;52.23
56040;BME280;43937;41.366;2.072;2023-06-19T04:32:00;100473.94;;;23.69;51.76
56040;BME280;43937;41.366;2.072;2023-06-19T04:34:28;100476.72;;;23.69;51.18
56040;BME280;43937;41.366;2.072;2023-06-19T04:36:53;100486.09;;;23.68;51.48
56040;BME280;43937;41.366;2.072;2023-06-19T04:39:24;100482.09;;;23.81;51.17
56040;BME280;43937;41.366;2.072;2023-06-19T04:41:49;100474.72;;;23.92;50.53
56040;BME280;43937;41.366;2.072;2023-06-19T04:44:15;100475.16;;;24.06;50.70
56040;BME280;43937;41.366;2.072;2023-06-19T04:46:41;100467.50;;;24.18;50.27
56040;BME280;43937;41.366;2.072;2023-06-19T04:49:06;100452.91;;;24.38;50.17
56040;BME280;43937;41.366;2.072;2023-06-19T04:51:32;100473.72;;;24.62;58.70
56040;BME280;43937;41.366;2.072;2023-06-19T04:54:01;100467.16;;;25.16;59.87
56040;BME280;43937;41.366;2.072;2023-06-19T04:56:26;100471.72;;;25.38;61.55
56040;BME280;43937;41.366;2.072;2023-06-19T04:58:52;100477.09;;;25.07;63.89
56040;BME280;43937;41.366;2.072;2023-06-19T05:01:21;100462.78;;;25.35;63.11
56040;BME280;43937;41.366;2.072;2023-06-19T05:03:53;100460.41;;;25.75;61.55
56040;BME280;43937;41.366;2.072;2023-06-19T05:06:20;100437.56;;;25.73;61.97
56040;BME280;43937;41.366;2.072;2023-06-19T05:08:45;100440.44;;;25.93;62.26
56040;BME280;43937;41.366;2.072;2023-06-19T05:11:11;100447.44;;;26.21;61.38
56040;BME280;43937;41.366;2.072;2023-06-19T05:13:36;100437.97;;;26.12;61.37
56040;BME280;43937;41.366;2.072;2023-06-19T05:16:01;100430.69;;;26.11;61.47
56040;BME280;43937;41.366;2.072;2023-06-19T05:18:27;100428.75;;;26.27;61.18
56040;BME280;43937;41.366;2.072;2023-06-19T05:20:52;100442.94;;;25.85;63.10
56040;BME280;43937;41.366;2.072;2023-06-19T05:23:18;100433.75;;;26.10;62.62
56040;BME280;43937;41.366;2.072;2023-06-19T05:25:43;100442.41;;;26.03;62.85
56040;BME280;43937;41.366;2.072;2023-06-19T05:28:09;100462.22;;;26.17;62.44
56040;BME280;43937;41.366;2.072;2023-06-19T05:30:34;100462.78;;;26.44;61.38
56040;BME280;43937;41.366;2.072;2023-06-19T05:33:00;100466.97;;;26.78;60.45
56040;BME280;43937;41.366;2.072;2023-06-19T05:35:25;100480.59;;;28.35;56.35
56040;BME280;43937;41.366;2.072;2023-06-19T05:37:51;100486.53;;;28.67;55.23
56040;BME280;43937;41.366;2.072;2023-06-19T05:40:17;100459.84;;;29.04;52.85
56040;BME280;43937;41.366;2.072;2023-06-19T05:42:42;100485.72;;;28.62;55.04
56040;BME280;43937;41.366;2.072;2023-06-19T05:45:08;100481.97;;;28.03;56.67
56040;BME280;43937;41.366;2.072;2023-06-19T05:47:34;100483.13;;;27.97;56.38
56040;BME280;43937;41.366;2.072;2023-06-19T05:49:59;100465.75;;;28.73;54.14
56040;BME280;43937;41.366;2.072;2023-06-19T05:52:25;100475.53;;;29.77;51.97
56040;BME280;43937;41.366;2.072;2023-06-19T05:54:51;100473.25;;;30.55;49.31
56040;BME280;43937;41.366;2.072;2023-06-19T05:57:17;100492.69;;;32.22;45.59
56040;BME280;43937;41.366;2.072;2023-06-19T05:59:47;100488.84;;;33.39;42.48
56040;BME280;43937;41.366;2.072;2023-06-19T06:02:15;100494.81;;;33.38;43.09
56040;BME280;43937;41.366;2.072;2023-06-19T06:04:41;100506.72;;;32.72;44.32
56040;BME280;43937;41.366;2.072;2023-06-19T06:07:06;100489.56;;;31.74;46.28
56040;BME280;43937;41.366;2.072;2023-06-19T06:09:31;100500.00;;;31.45;46.46
56040;BME280;43937;41.366;2.072;2023-06-19T06:11:58;100494.75;;;33.60;42.12
56040;BME280;43937;41.366;2.072;2023-06-19T06:14:24;100517.63;;;34.85;39.43
56040;BME280;43937;41.366;2.072;2023-06-19T06:16:50;100516.97;;;34.28;40.37
56040;BME280;43937;41.366;2.072;2023-06-19T06:19:15;100513.97;;;33.18;43.08
56040;BME280;43937;41.366;2.072;2023-06-19T06:21:41;100503.75;;;35.19;38.64
56040;BME280;43937;41.366;2.072;2023-06-19T06:24:06;100508.44;;;35.06;38.74
56040;BME280;43937;41.366;2.072;2023-06-19T06:26:32;100524.56;;;36.20;36.85
56040;BME280;43937;41.366;2.072;2023-06-19T06:28:58;100510.91;;;35.63;37.52
56040;BME280;43937;41.366;2.072;2023-06-19T06:31:24;100509.16;;;34.77;38.68
56040;BME280;43937;41.366;2.072;2023-06-19T06:33:49;100520.81;;;36.08;36.50
56040;BME280;43937;41.366;2.072;2023-06-19T06:36:15;100525.09;;;38.33;32.65
56040;BME280;43937;41.366;2.072;2023-06-19T06:38:41;100530.19;;;38.39;31.94
56040;BME280;43937;41.366;2.072;2023-06-19T06:41:07;100542.56;;;36.16;35.46
56040;BME280;43937;41.366;2.072;2023-06-19T06:44:11;100537.97;;;36.03;35.73
56040;BME280;43937;41.366;2.072;2023-06-19T06:46:37;100541.66;;;38.43;31.23
56040;BME280;43937;41.366;2.072;2023-06-19T06:49:02;100544.03;;;39.73;29.59
56040;BME280;43937;41.366;2.072;2023-06-19T06:51:28;100557.75;;;36.83;33.16
56040;BME280;43937;41.366;2.072;2023-06-19T06:53:53;100551.81;;;36.88;32.52
56040;BME280;43937;41.366;2.072;2023-06-19T06:56:18;100543.34;;;36.67;32.92
56040;BME280;43937;41.366;2.072;2023-06-19T06:58:44;100542.66;;;36.07;33.10
56040;BME280;43937;41.366;2.072;2023-06-19T07:01:12;100525.00;;;35.72;34.09
56040;BME280;43937;41.366;2.072;2023-06-19T07:03:37;100511.41;;;35.18;34.53
56040;BME280;43937;41.366;2.072;2023-06-19T07:06:03;100505.44;;;32.78;38.46
56040;BME280;43937;41.366;2.072;2023-06-19T07:08:28;100497.81;;;31.56;41.77
56040;BME280;43937;41.366;2.072;2023-06-19T07:10:54;100493.31;;;30.48;43.27
56040;BME280;43937;41.366;2.072;2023-06-19T07:13:19;100490.00;;;30.79;42.61
56040;BME280;43937;41.366;2.072;2023-06-19T07:15:45;100501.75;;;31.14;41.72
56040;BME280;43937;41.366;2.072;2023-06-19T07:18:10;100513.13;;;31.64;40.26
56040;BME280;43937;41.366;2.072;2023-06-19T07:20:36;100511.44;;;33.48;36.68
56040;BME280;43937;41.366;2.072;2023-06-19T07:23:01;100507.56;;;32.14;38.00
56040;BME280;43937;41.366;2.072;2023-06-19T07:25:27;100539.06;;;31.75;39.14
56040;BME280;43937;41.366;2.072;2023-06-19T07:27:52;100505.22;;;31.38;39.22
56040;BME280;43937;41.366;2.072;2023-06-19T07:30:18;100519.75;;;30.80;40.28
56040;BME280;43937;41.366;2.072;2023-06-19T07:32:44;100524.09;;;31.05;39.69
56040;BME280;43937;41.366;2.072;2023-06-19T07:35:10;100510.88;;;29.97;40.62
56040;BME280;43937;41.366;2.072;2023-06-19T07:37:36;100518.63;;;30.05;40.45
56040;BME280;43937;41.366;2.072;2023-06-19T07:40:02;100519.97;;;30.32;39.29
56040;BME280;43937;41.366;2.072;2023-06-19T07:42:28;100490.81;;;29.90;39.21
56040;BME280;43937;41.366;2.072;2023-06-19T07:44:54;100495.44;;;30.00;38.99
56040;BME280;43937;41.366;2.072;2023-06-19T07:47:19;100491.53;;;29.77;39.40
56040;BME280;43937;41.366;2.072;2023-06-19T07:49:46;100518.06;;;29.12;39.89
56040;BME280;43937;41.366;2.072;2023-06-19T07:52:12;100547.59;;;29.29;39.33
56040;BME280;43937;41.366;2.072;2023-06-19T07:54:57;100556.75;;;29.39;38.67
56040;BME280;43937;41.366;2.072;2023-06-19T07:57:24;100537.13;;;29.39;40.08
56040;BME280;43937;41.366;2.072;2023-06-19T07:59:51;100537.94;;;29.40;40.33
56040;BME280;43937;41.366;2.072;2023-06-19T08:02:17;100572.25;;;29.03;42.87
56040;BME280;43937;41.366;2.072;2023-06-19T08:04:43;100571.22;;;28.88;43.89
56040;BME280;43937;41.366;2.072;2023-06-19T08:07:08;100557.91;;;28.75;43.72
56040;BME280;43937;41.366;2.072;2023-06-19T08:09:34;100558.25;;;28.63;44.76
56040;BME280;43937;41.366;2.072;2023-06-19T08:12:01;100578.09;;;28.72;44.13
56040;BME280;43937;41.366;2.072;2023-06-19T08:14:26;100559.94;;;28.64;44.45
56040;BME280;43937;41.366;2.072;2023-06-19T08:16:52;100568.06;;;28.66;45.14
56040;BME280;43937;41.366;2.072;2023-06-19T08:19:17;100550.13;;;28.62;44.94
56040;BME280;43937;41.366;2.072;2023-06-19T08:21:42;100565.97;;;28.82;44.61
56040;BME280;43937;41.366;2.072;2023-06-19T08:25:51;100542.53;;;28.67;45.07
56040;BME280;43937;41.366;2.072;2023-06-19T08:28:17;100555.00;;;28.51;46.46
56040;BME280;43937;41.366;2.072;2023-06-19T08:30:44;100568.78;;;28.42;47.18
56040;BME280;43937;41.366;2.072;2023-06-19T08:33:10;100562.44;;;28.21;48.31
56040;BME280;43937;41.366;2.072;2023-06-19T08:35:36;100561.44;;;28.51;49.03
56040;BME280;43937;41.366;2.072;2023-06-19T08:38:02;100553.25;;;28.60;49.02
56040;BME280;43937;41.366;2.072;2023-06-19T08:40:27;100555.69;;;28.22;50.49
56040;BME280;43937;41.366;2.072;2023-06-19T08:42:53;100545.16;;;28.04;50.75
56040;BME280;43937;41.366;2.072;2023-06-19T08:45:20;100553.06;;;27.97;51.49
56040;BME280;43937;41.366;2.072;2023-06-19T08:47:47;100509.78;;;27.79;52.11
56040;BME280;43937;41.366;2.072;2023-06-19T08:50:13;100538.59;;;27.69;52.61
56040;BME280;43937;41.366;2.072;2023-06-19T08:52:39;100550.31;;;27.76;52.71
56040;BME280;43937;41.366;2.072;2023-06-19T08:55:05;100554.22;;;27.85;50.95
56040;BME280;43937;41.366;2.072;2023-06-19T08:57:38;100557.91;;;27.81;50.00
56040;BME280;43937;41.366;2.072;2023-06-19T09:00:04;100581.59;;;27.94;51.67
56040;BME280;43937;41.366;2.072;2023-06-19T09:02:40;100593.94;;;27.88;52.67
56040;BME280;43937;41.366;2.072;2023-06-19T09:05:24;100599.81;;;27.76;52.82
56040;BME280;43937;41.366;2.072;2023-06-19T09:07:58;100595.63;;;27.73;52.60
56040;BME280;43937;41.366;2.072;2023-06-19T09:10:26;100595.88;;;27.77;52.23
56040;BME280;43937;41.366;2.072;2023-06-19T09:12:59;100580.50;;;27.74;53.57
56040;BME280;43937;41.366;2.072;2023-06-19T09:15:28;100563.44;;;27.86;51.43
56040;BME280;43937;41.366;2.072;2023-06-19T09:18:20;100559.28;;;27.78;50.02
56040;BME280;43937;41.366;2.072;2023-06-19T09:20:45;100555.88;;;27.86;50.90
56040;BME280;43937;41.366;2.072;2023-06-19T09:23:13;100542.03;;;27.51;52.09
56040;BME280;43937;41.366;2.072;2023-06-19T09:27:14;100557.25;;;28.49;50.58
56040;BME280;43937;41.366;2.072;2023-06-19T09:29:47;100568.81;;;28.71;51.24
56040;BME280;43937;41.366;2.072;2023-06-19T09:34:46;100573.97;;;29.28;50.29
56040;BME280;43937;41.366;2.072;2023-06-19T09:37:12;100590.66;;;29.38;50.85
56040;BME280;43937;41.366;2.072;2023-06-19T09:39:39;100583.59;;;29.45;48.61
56040;BME280;43937;41.366;2.072;2023-06-19T09:42:07;100585.94;;;29.86;49.77
56040;BME280;43937;41.366;2.072;2023-06-19T09:46:35;100564.88;;;29.89;48.14
56040;BME280;43937;41.366;2.072;2023-06-19T09:49:04;100573.03;;;30.09;48.67
56040;BME280;43937;41.366;2.072;2023-06-19T09:51:33;100574.00;;;30.24;46.10
56040;BME280;43937;41.366;2.072;2023-06-19T09:54:02;100553.75;;;30.03;46.52
56040;BME280;43937;41.366;2.072;2023-06-19T09:56:33;100550.84;;;30.32;46.04
56040;BME280;43937;41.366;2.072;2023-06-19T09:58:59;100509.28;;;29.91;42.24
56040;BME280;43937;41.366;2.072;2023-06-19T10:01:27;100506.25;;;29.69;42.58
56040;BME280;43937;41.366;2.072;2023-06-19T10:04:04;100534.34;;;30.06;42.70
56040;BME280;43937;41.366;2.072;2023-06-19T10:06:30;100509.09;;;29.63;42.13
56040;BME280;43937;41.366;2.072;2023-06-19T10:10:04;100495.69;;;29.55;42.12
56040;BME280;43937;41.366;2.072;2023-06-19T10:12:43;100474.56;;;29.20;42.85
56040;BME280;43937;41.366;2.072;2023-06-19T10:15:09;100481.38;;;30.19;40.31
56040;BME280;43937;41.366;2.072;2023-06-19T10:17:36;100493.63;;;31.26;37.98
56040;BME280;43937;41.366;2.072;2023-06-19T10:20:02;100508.94;;;32.03;36.34
56040;BME280;43937;41.366;2.072;2023-06-19T10:22:31;100502.84;;;32.91;35.45
56040;BME280;43937;41.366;2.072;2023-06-19T10:24:56;100511.78;;;32.25;34.90
56040;BME280;43937;41.366;2.072;2023-06-19T10:27:24;100513.03;;;32.19;35.16
56040;BME280;43937;41.366;2.072;2023-06-19T10:29:54;100507.91;;;32.35;34.35
56040;BME280;43937;41.366;2.072;2023-06-19T10:32:20;100500.00;;;33.13;32.54
56040;BME280;43937;41.366;2.072;2023-06-19T10:34:47;100499.28;;;32.99;32.53
56040;BME280;43937;41.366;2.072;2023-06-19T10:37:15;100467.72;;;33.28;32.81
56040;BME280;43937;41.366;2.072;2023-06-19T10:39:41;100467.44;;;32.76;33.06
56040;BME280;43937;41.366;2.072;2023-06-19T10:42:08;100495.94;;;32.52;32.39
56040;BME280;43937;41.366;2.072;2023-06-19T10:44:34;100487.91;;;32.23;32.80
56040;BME280;43937;41.366;2.072;2023-06-19T10:47:00;100459.16;;;32.12;33.14
56040;BME280;43937;41.366;2.072;2023-06-19T10:49:26;100486.34;;;32.53;31.55
56040;BME280;43937;41.366;2.072;2023-06-19T10:51:52;100464.16;;;32.37;31.71
56040;BME280;43937;41.366;2.072;2023-06-19T10:54:27;100488.72;;;32.59;31.59
56040;BME280;43937;41.366;2.072;2023-06-19T10:56:53;100499.69;;;32.25;32.16
56040;BME280;43937;41.366;2.072;2023-06-19T10:59:19;100481.50;;;32.08;32.19
56040;BME280;43937;41.366;2.072;2023-06-19T11:01:46;100464.00;;;31.98;32.29
56040;BME280;43937;41.366;2.072;2023-06-19T11:04:13;100483.81;;;31.79;32.45
56040;BME280;43937;41.366;2.072;2023-06-19T11:06:41;100488.19;;;32.80;30.93
56040;BME280;43937;41.366;2.072;2023-06-19T11:09:08;100469.66;;;32.88;30.59
56040;BME280;43937;41.366;2.072;2023-06-19T11:11:39;100480.03;;;33.01;30.32
56040;BME280;43937;41.366;2.072;2023-06-19T11:14:05;100468.72;;;32.70;30.23
56040;BME280;43937;41.366;2.072;2023-06-19T11:16:30;100488.38;;;33.06;30.42
56040;BME280;43937;41.366;2.072;2023-06-19T11:18:57;100470.97;;;33.52;30.27
56040;BME280;43937;41.366;2.072;2023-06-19T11:21:33;100481.50;;;33.29;30.34
56040;BME280;43937;41.366;2.072;2023-06-19T11:24:01;100463.44;;;32.09;31.59
56040;BME280;43937;41.366;2.072;2023-06-19T11:26:27;100487.06;;;32.22;31.41
56040;BME280;43937;41.366;2.072;2023-06-19T11:28:53;100458.56;;;32.01;30.89
56040;BME280;43937;41.366;2.072;2023-06-19T11:31:25;100479.13;;;32.24;31.70
56040;BME280;43937;41.366;2.072;2023-06-19T11:34:00;100487.34;;;31.84;31.05
56040;BME280;43937;41.366;2.072;2023-06-19T11:36:27;100496.19;;;32.42;30.33
56040;BME280;43937;41.366;2.072;2023-06-19T11:38:54;100496.41;;;32.31;31.37
56040;BME280;43937;41.366;2.072;2023-06-19T11:41:27;100500.38;;;33.20;29.20
56040;BME280;43937;41.366;2.072;2023-06-19T11:44:03;100491.50;;;32.82;29.24
56040;BME280;43937;41.366;2.072;2023-06-19T11:46:33;100488.56;;;32.87;29.22
56040;BME280;43937;41.366;2.072;2023-06-19T11:49:18;100488.06;;;33.08;28.54
56040;BME280;43937;41.366;2.072;2023-06-19T11:51:44;100485.31;;;32.49;29.23
56040;BME280;43937;41.366;2.072;2023-06-19T11:54:10;100482.09;;;32.87;29.02
56040;BME280;43937;41.366;2.072;2023-06-19T11:56:40;100483.38;;;34.00;28.23
56040;BME280;43937;41.366;2.072;2023-06-19T11:59:06;100469.66;;;32.88;27.39
56040;BME280;43937;41.366;2.072;2023-06-19T12:01:32;100456.75;;;32.42;28.20
56040;BME280;43937;41.366;2.072;2023-06-19T12:03:59;100492.03;;;32.03;28.30
56040;BME280;43937;41.366;2.072;2023-06-19T12:06:24;100494.75;;;32.44;27.64
56040;BME280;43937;41.366;2.072;2023-06-19T12:08:50;100491.03;;;32.57;27.02
56040;BME280;43937;41.366;2.072;2023-06-19T12:11:15;100491.44;;;32.96;27.12
56040;BME280;43937;41.366;2.072;2023-06-19T12:13:41;100465.88;;;33.23;26.22
56040;BME280;43937;41.366;2.072;2023-06-19T12:16:07;100471.72;;;32.96;26.37
56040;BME280;43937;41.366;2.072;2023-06-19T12:18:33;100461.09;;;32.70;26.62
56040;BME280;43937;41.366;2.072;2023-06-19T12:20:58;100467.41;;;33.29;26.05
56040;BME280;43937;41.366;2.072;2023-06-19T12:23:24;100503.88;;;32.50;27.11
56040;BME280;43937;41.366;2.072;2023-06-19T12:25:49;100489.94;;;33.21;26.81
56040;BME280;43937;41.366;2.072;2023-06-19T12:28:15;100488.72;;;33.13;26.92
56040;BME280;43937;41.366;2.072;2023-06-19T12:30:45;100484.25;;;33.52;25.87
56040;BME280;43937;41.366;2.072;2023-06-19T12:33:13;100472.22;;;33.86;26.33
56040;BME280;43937;41.366;2.072;2023-06-19T12:35:40;100481.25;;;34.14;25.89
56040;BME280;43937;41.366;2.072;2023-06-19T12:38:09;100476.03;;;33.33;26.57
56040;BME280;43937;41.366;2.072;2023-06-19T12:40:35;100485.78;;;33.67;26.84
56040;BME280;43937;41.366;2.072;2023-06-19T12:43:01;100475.03;;;33.78;26.37
56040;BME280;43937;41.366;2.072;2023-06-19T12:47:32;100466.72;;;33.24;26.66
56040;BME280;43937;41.366;2.072;2023-06-19T12:49:57;100461.53;;;33.57;26.92
56040;BME280;43937;41.366;2.072;2023-06-19T12:54:06;100454.94;;;33.79;26.94
56040;BME280;43937;41.366;2.072;2023-06-19T12:56:32;100455.38;;;33.15;28.12
56040;BME280;43937;41.366;2.072;2023-06-19T12:58:57;100466.63;;;33.06;27.77
56040;BME280;43937;41.366;2.072;2023-06-19T13:01:23;100458.91;;;32.90;29.06
56040;BME280;43937;41.366;2.072;2023-06-19T13:03:48;100389.53;;;33.11;27.66
56040;BME280;43937;41.366;2.072;2023-06-19T13:06:14;100424.25;;;33.29;28.55
56040;BME280;43937;41.366;2.072;2023-06-19T13:08:39;100453.63;;;32.66;28.31
56040;BME280;43937;41.366;2.072;2023-06-19T13:11:05;100426.22;;;32.89;28.80
56040;BME280;43937;41.366;2.072;2023-06-19T13:13:30;100392.91;;;32.59;28.70